sensor_id;sensor_type;location;lat;lon;timestamp;pressure;altitude;pressure_sealevel;temperature;humidity
5883;BME280;2967;51.488;6.618;2023-04-02T00:04:22;100660.06;;;9.44;100.00
5883;BME280;2967;51.488;6.618;2023-04-02T00:09:34;100669.03;;;9.42;100.00
5883;BME280;2967;51.488;6.618;2023-04-02T00:14:37;100671.84;;;9.53;100.00
5883;BME280;2967;51.488;6.618;2023-04-02T00:19:45;100678.16;;;9.36;100.00
5883;BME280;2967;51.488;6.618;2023-04-02T00:24:52;100700.47;;;9.17;100.00
5883;BME280;2967;51.488;6.618;2023-04-02T00:29:56;100702.38;;;9.15;100.00
5883;BME280;2967;51.488;6.618;2023-04-02T00:35:02;100712.75;;;9.32;100.00
5883;BME280;2967;51.488;6.618;2023-04-02T00:40:08;100731.44;;;9.29;100.00
5883;BME280;2967;51.488;6.618;2023-04-02T00:45:22;100742.34;;;9.23;100.00
5883;BME280;2967;51.488;6.618;2023-04-02T00:50:30;100745.66;;;9.12;100.00
5883;BME280;2967;51.488;6.618;2023-04-02T00:55:37;100742.38;;;8.93;100.00
5883;BME280;2967;51.488;6.618;2023-04-02T01:00:48;100761.88;;;8.91;100.00
5883;BME280;2967;51.488;6.618;2023-04-02T01:05:56;100682.81;;;8.30;100.00
5883;BME280;2967;51.488;6.618;2023-04-02T01:11:08;100781.78;;;8.96;100.00
5883;BME280;2967;51.488;6.618;2023-04-02T01:16:19;100737.09;;;8.64;100.00
5883;BME280;2967;51.488;6.618;2023-04-02T01:21:40;100803.66;;;8.83;100.00
5883;BME280;2967;51.488;6.618;2023-04-02T01:26:52;100795.97;;;8.64;100.00
5883;BME280;2967;51.488;6.618;2023-04-02T01:32:01;100747.59;;;8.50;100.00
5883;BME280;2967;51.488;6.618;2023-04-02T01:37:14;100741.66;;;8.31;100.00
5883;BME280;2967;51.488;6.618;2023-04-02T01:42:27;100696.84;;;8.00;100.00
5883;BME280;2967;51.488;6.618;2023-04-02T01:47:34;100805.19;;;8.71;100.00
5883;BME280;2967;51.488;6.618;2023-04-02T01:52:39;100686.81;;;7.91;100.00
5883;BME280;2967;51.488;6.618;2023-04-02T01:57:46;100854.13;;;8.92;100.00
5883;BME280;2967;51.488;6.618;2023-04-02T02:02:52;100866.38;;;8.93;100.00
5883;BME280;2967;51.488;6.618;2023-04-02T02:07:57;100807.09;;;8.54;100.00
5883;BME280;2967;51.488;6.618;2023-04-02T02:13:02;100882.22;;;8.78;100.00
5883;BME280;2967;51.488;6.618;2023-04-02T02:18:06;100853.88;;;8.50;100.00
5883;BME280;2967;51.488;6.618;2023-04-02T02:23:12;100746.88;;;7.69;100.00
5883;BME280;2967;51.488;6.618;2023-04-02T02:28:19;100896.66;;;8.71;100.00
5883;BME280;2967;51.488;6.618;2023-04-02T02:33:26;100905.56;;;8.53;100.00
5883;BME280;2967;51.488;6.618;2023-04-02T02:38:43;100930.09;;;8.86;100.00
5883;BME280;2967;51.488;6.618;2023-04-02T02:43:58;100933.38;;;8.58;100.00
5883;BME280;2967;51.488;6.618;2023-04-02T02:49:05;100905.50;;;8.39;100.00
5883;BME280;2967;51.488;6.618;2023-04-02T02:54:09;100904.03;;;8.16;100.00
5883;BME280;2967;51.488;6.618;2023-04-02T02:59:13;100936.97;;;8.25;100.00
5883;BME280;2967;51.488;6.618;2023-04-02T03:04:21;100849.19;;;7.75;100.00
5883;BME280;2967;51.488;6.618;2023-04-02T03:09:35;100995.63;;;8.45;100.00
5883;BME280;2967;51.488;6.618;2023-04-02T03:14:41;100971.34;;;8.23;100.00
5883;BME280;2967;51.488;6.618;2023-04-02T03:19:51;100917.63;;;7.92;100.00
5883;BME280;2967;51.488;6.618;2023-04-02T03:25:01;101020.59;;;8.38;100.00
5883;BME280;2967;51.488;6.618;2023-04-02T03:30:24;100966.28;;;8.02;100.00
5883;BME280;2967;51.488;6.618;2023-04-02T03:35:34;101040.19;;;8.50;100.00
5883;BME280;2967;51.488;6.618;2023-04-02T03:40:41;100908.38;;;7.51;100.00
5883;BME280;2967;51.488;6.618;2023-04-02T03:45:49;101067.50;;;8.49;100.00
5883;BME280;2967;51.488;6.618;2023-04-02T03:50:59;101029.63;;;8.16;100.00
5883;BME280;2967;51.488;6.618;2023-04-02T03:56:05;101097.97;;;8.37;100.00
5883;BME280;2967;51.488;6.618;2023-04-02T04:01:13;101110.03;;;8.41;100.00
5883;BME280;2967;51.488;6.618;2023-04-02T04:06:23;101118.34;;;8.34;100.00
5883;BME280;2967;51.488;6.618;2023-04-02T04:11:30;101124.41;;;8.19;100.00
5883;BME280;2967;51.488;6.618;2023-04-02T04:16:40;101076.72;;;7.71;100.00
5883;BME280;2967;51.488;6.618;2023-04-02T04:35:29;101187.63;;;8.00;100.00
5883;BME280;2967;51.488;6.618;2023-04-02T04:40:41;101195.44;;;8.02;100.00
5883;BME280;2967;51.488;6.618;2023-04-02T04:45:49;101207.63;;;7.86;100.00
5883;BME280;2967;51.488;6.618;2023-04-02T04:50:59;101217.47;;;8.01;100.00
5883;BME280;2967;51.488;6.618;2023-04-02T04:56:04;101221.81;;;7.83;100.00
5883;BME280;2967;51.488;6.618;2023-04-02T05:01:26;101236.66;;;7.66;100.00
5883;BME280;2967;51.488;6.618;2023-04-02T05:06:35;101256.84;;;7.67;100.00
5883;BME280;2967;51.488;6.618;2023-04-02T05:11:43;101264.50;;;7.71;100.00
5883;BME280;2967;51.488;6.618;2023-04-02T05:16:52;101267.97;;;7.54;100.00
5883;BME280;2967;51.488;6.618;2023-04-02T05:22:04;101281.19;;;7.52;100.00
5883;BME280;2967;51.488;6.618;2023-04-02T05:27:22;101299.00;;;7.66;100.00
5883;BME280;2967;51.488;6.618;2023-04-02T05:32:30;101318.28;;;7.66;100.00
5883;BME280;2967;51.488;6.618;2023-04-02T05:37:38;101329.72;;;7.65;100.00
5883;BME280;2967;51.488;6.618;2023-04-02T05:42:44;101335.94;;;7.44;100.00
5883;BME280;2967;51.488;6.618;2023-04-02T05:47:52;101343.53;;;7.32;100.00
5883;BME280;2967;51.488;6.618;2023-04-02T05:53:10;101359.38;;;7.30;100.00
5883;BME280;2967;51.488;6.618;2023-04-02T05:58:23;101381.59;;;7.43;100.00
5883;BME280;2967;51.488;6.618;2023-04-02T06:03:39;101385.94;;;7.44;100.00
5883;BME280;2967;51.488;6.618;2023-04-02T06:08:54;101387.28;;;7.54;100.00
5883;BME280;2967;51.488;6.618;2023-04-02T06:13:59;101402.63;;;7.45;100.00
5883;BME280;2967;51.488;6.618;2023-04-02T06:19:05;101417.44;;;7.26;100.00
5883;BME280;2967;51.488;6.618;2023-04-02T06:24:12;101436.41;;;7.34;100.00
5883;BME280;2967;51.488;6.618;2023-04-02T06:29:24;101438.03;;;7.36;100.00
5883;BME280;2967;51.488;6.618;2023-04-02T06:34:30;101445.53;;;7.25;100.00
5883;BME280;2967;51.488;6.618;2023-04-02T06:39:39;101459.81;;;7.40;100.00
5883;BME280;2967;51.488;6.618;2023-04-02T06:44:43;101467.31;;;7.29;100.00
5883;BME280;2967;51.488;6.618;2023-04-02T06:50:17;101478.16;;;7.21;100.00
5883;BME280;2967;51.488;6.618;2023-04-02T06:55:33;101482.00;;;7.34;100.00
5883;BME280;2967;51.488;6.618;2023-04-02T07:00:40;101499.25;;;7.41;100.00
5883;BME280;2967;51.488;6.618;2023-04-02T07:05:48;101509.09;;;7.36;100.00
5883;BME280;2967;51.488;6.618;2023-04-02T07:10:53;101536.47;;;7.32;100.00
5883;BME280;2967;51.488;6.618;2023-04-02T07:15:57;101536.81;;;7.23;100.00
5883;BME280;2967;51.488;6.618;2023-04-02T07:21:01;101545.81;;;7.18;100.00
5883;BME280;2967;51.488;6.618;2023-04-02T07:26:06;101551.03;;;7.19;100.00
5883;BME280;2967;51.488;6.618;2023-04-02T07:31:15;101533.50;;;6.97;100.00
5883;BME280;2967;51.488;6.618;2023-04-02T07:36:19;101583.75;;;7.12;100.00
5883;BME280;2967;51.488;6.618;2023-04-02T07:41:24;101597.16;;;7.28;100.00
5883;BME280;2967;51.488;6.618;2023-04-02T07:46:27;101611.28;;;7.48;100.00
5883;BME280;2967;51.488;6.618;2023-04-02T07:51:30;101611.47;;;7.44;100.00
5883;BME280;2967;51.488;6.618;2023-04-02T07:56:35;101609.22;;;7.12;100.00
5883;BME280;2967;51.488;6.618;2023-04-02T08:01:38;101623.44;;;7.29;100.00
5883;BME280;2967;51.488;6.618;2023-04-02T08:06:44;101599.66;;;7.09;100.00
5883;BME280;2967;51.488;6.618;2023-04-02T08:11:48;101643.44;;;7.33;100.00
5883;BME280;2967;51.488;6.618;2023-04-02T08:16:53;101652.97;;;7.37;100.00
5883;BME280;2967;51.488;6.618;2023-04-02T08:21:56;101676.16;;;7.26;100.00
5883;BME280;2967;51.488;6.618;2023-04-02T08:27:00;101656.72;;;7.07;100.00
5883;BME280;2967;51.488;6.618;2023-04-02T08:32:03;101685.34;;;7.39;100.00
5883;BME280;2967;51.488;6.618;2023-04-02T08:37:08;101702.72;;;7.43;100.00
5883;BME280;2967;51.488;6.618;2023-04-02T08:42:19;101709.78;;;7.43;100.00
5883;BME280;2967;51.488;6.618;2023-04-02T08:47:24;101718.78;;;7.59;100.00
5883;BME280;2967;51.488;6.618;2023-04-02T08:52:32;101717.22;;;7.76;100.00
5883;BME280;2967;51.488;6.618;2023-04-02T08:57:42;101735.88;;;7.93;100.00
5883;BME280;2967;51.488;6.618;2023-04-02T09:02:51;101749.41;;;7.84;100.00
5883;BME280;2967;51.488;6.618;2023-04-02T09:07:59;101753.91;;;7.80;100.00
5883;BME280;2967;51.488;6.618;2023-04-02T09:13:12;101759.16;;;7.82;100.00
5883;BME280;2967;51.488;6.618;2023-04-02T09:18:18;101764.28;;;7.85;100.00
5883;BME280;2967;51.488;6.618;2023-04-02T09:23:22;101788.09;;;8.05;100.00
5883;BME280;2967;51.488;6.618;2023-04-02T09:28:27;101801.38;;;8.02;100.00
5883;BME280;2967;51.488;6.618;2023-04-02T09:33:41;101807.78;;;7.95;100.00
5883;BME280;2967;51.488;6.618;2023-04-02T09:39:00;101817.72;;;7.88;100.00
5883;BME280;2967;51.488;6.618;2023-04-02T09:44:17;101822.81;;;7.93;100.00
5883;BME280;2967;51.488;6.618;2023-04-02T09:49:23;101817.78;;;7.87;100.00
5883;BME280;2967;51.488;6.618;2023-04-02T09:54:27;101832.38;;;7.95;100.00
5883;BME280;2967;51.488;6.618;2023-04-02T09:59:31;101828.78;;;7.98;100.00
5883;BME280;2967;51.488;6.618;2023-04-02T10:04:38;101847.50;;;8.13;100.00
5883;BME280;2967;51.488;6.618;2023-04-02T10:09:56;101858.06;;;8.36;100.00
5883;BME280;2967;51.488;6.618;2023-04-02T10:15:02;101865.28;;;8.53;100.00
5883;BME280;2967;51.488;6.618;2023-04-02T10:20:16;101878.69;;;8.70;100.00
5883;BME280;2967;51.488;6.618;2023-04-02T10:25:24;101879.72;;;8.66;100.00
5883;BME280;2967;51.488;6.618;2023-04-02T10:30:39;101893.78;;;8.66;100.00
5883;BME280;2967;51.488;6.618;2023-04-02T10:35:50;101910.00;;;8.56;100.00
5883;BME280;2967;51.488;6.618;2023-04-02T10:40:58;101927.19;;;8.66;100.00
5883;BME280;2967;51.488;6.618;2023-04-02T10:46:06;101919.28;;;8.66;100.00
5883;BME280;2967;51.488;6.618;2023-04-02T10:51:23;101949.66;;;8.76;100.00
5883;BME280;2967;51.488;6.618;2023-04-02T10:56:31;101947.66;;;8.82;100.00
5883;BME280;2967;51.488;6.618;2023-04-02T11:01:51;101969.91;;;8.75;100.00
5883;BME280;2967;51.488;6.618;2023-04-02T11:06:58;101980.28;;;8.80;100.00
5883;BME280;2967;51.488;6.618;2023-04-02T11:12:20;101986.31;;;8.60;100.00
5883;BME280;2967;51.488;6.618;2023-04-02T11:17:26;101989.69;;;8.64;100.00
5883;BME280;2967;51.488;6.618;2023-04-02T11:22:28;101982.41;;;8.47;100.00
5883;BME280;2967;51.488;6.618;2023-04-02T11:27:32;101991.72;;;8.34;100.00
5883;BME280;2967;51.488;6.618;2023-04-02T11:32:38;102001.63;;;8.51;100.00
5883;BME280;2967;51.488;6.618;2023-04-02T11:37:44;102004.72;;;8.39;100.00
5883;BME280;2967;51.488;6.618;2023-04-02T11:42:47;102002.66;;;8.47;100.00
5883;BME280;2967;51.488;6.618;2023-04-02T11:48:28;102018.13;;;8.56;100.00
5883;BME280;2967;51.488;6.618;2023-04-02T11:53:33;102013.56;;;8.61;100.00
5883;BME280;2967;51.488;6.618;2023-04-02T11:58:48;102029.25;;;8.64;100.00
5883;BME280;2967;51.488;6.618;2023-04-02T12:09:44;102037.72;;;8.73;100.00
5883;BME280;2967;51.488;6.618;2023-04-02T12:14:50;102045.91;;;8.89;100.00
5883;BME280;2967;51.488;6.618;2023-04-02T12:19:55;102065.13;;;8.92;100.00
5883;BME280;2967;51.488;6.618;2023-04-02T12:25:02;102055.59;;;8.88;100.00
5883;BME280;2967;51.488;6.618;2023-04-02T12:30:15;102068.84;;;8.87;100.00
5883;BME280;2967;51.488;6.618;2023-04-02T12:35:27;102053.44;;;8.75;100.00
5883;BME280;2967;51.488;6.618;2023-04-02T12:40:31;102076.69;;;8.88;100.00
5883;BME280;2967;51.488;6.618;2023-04-02T12:45:35;102090.81;;;8.87;100.00
5883;BME280;2967;51.488;6.618;2023-04-02T12:50:38;102087.19;;;8.90;100.00
5883;BME280;2967;51.488;6.618;2023-04-02T12:55:45;102094.66;;;9.02;100.00
5883;BME280;2967;51.488;6.618;2023-04-02T13:00:48;102103.16;;;9.10;100.00
5883;BME280;2967;51.488;6.618;2023-04-02T13:05:53;102105.38;;;8.97;99.45
5883;BME280;2967;51.488;6.618;2023-04-02T13:11:00;102107.63;;;9.08;99.29
5883;BME280;2967;51.488;6.618;2023-04-02T13:16:06;102112.84;;;9.09;100.00
5883;BME280;2967;51.488;6.618;2023-04-02T13:21:23;102115.78;;;9.02;98.85
5883;BME280;2967;51.488;6.618;2023-04-02T13:26:30;102127.91;;;9.06;98.60
5883;BME280;2967;51.488;6.618;2023-04-02T13:31:33;102117.09;;;9.13;97.63
5883;BME280;2967;51.488;6.618;2023-04-02T13:36:35;102126.38;;;9.68;97.36
5883;BME280;2967;51.488;6.618;2023-04-02T13:41:42;102128.13;;;10.32;96.28
5883;BME280;2967;51.488;6.618;2023-04-02T13:46:45;102135.31;;;10.88;92.59
5883;BME280;2967;51.488;6.618;2023-04-02T13:51:49;102132.13;;;11.55;95.31
5883;BME280;2967;51.488;6.618;2023-04-02T13:56:54;102131.00;;;11.79;91.85
5883;BME280;2967;51.488;6.618;2023-04-02T14:02:02;102133.19;;;12.24;89.26
5883;BME280;2967;51.488;6.618;2023-04-02T14:07:21;102142.84;;;12.42;89.64
5883;BME280;2967;51.488;6.618;2023-04-02T14:12:37;102140.81;;;12.30;88.77
5883;BME280;2967;51.488;6.618;2023-04-02T14:17:51;102132.25;;;12.25;90.13
5883;BME280;2967;51.488;6.618;2023-04-02T14:23:16;102129.59;;;12.25;87.90
5883;BME280;2967;51.488;6.618;2023-04-02T14:28:31;102131.22;;;12.27;85.65
5883;BME280;2967;51.488;6.618;2023-04-02T14:33:44;102133.34;;;12.38;87.30
5883;BME280;2967;51.488;6.618;2023-04-02T14:38:54;102142.47;;;12.32;86.66
5883;BME280;2967;51.488;6.618;2023-04-02T14:44:02;102149.41;;;11.82;87.28
5883;BME280;2967;51.488;6.618;2023-04-02T14:49:16;102162.03;;;11.59;85.81
5883;BME280;2967;51.488;6.618;2023-04-02T14:54:29;102165.44;;;11.42;86.22
5883;BME280;2967;51.488;6.618;2023-04-02T14:59:38;102165.59;;;11.39;87.85
5883;BME280;2967;51.488;6.618;2023-04-02T15:04:44;102164.25;;;11.68;87.92
5883;BME280;2967;51.488;6.618;2023-04-02T15:09:50;102171.31;;;11.49;87.58
5883;BME280;2967;51.488;6.618;2023-04-02T15:15:03;102106.72;;;10.96;87.19
5883;BME280;2967;51.488;6.618;2023-04-02T15:20:12;102180.75;;;11.36;85.30
5883;BME280;2967;51.488;6.618;2023-04-02T15:25:21;102177.03;;;11.21;84.84
5883;BME280;2967;51.488;6.618;2023-04-02T15:30:34;102184.13;;;11.39;89.88
5883;BME280;2967;51.488;6.618;2023-04-02T15:35:43;102191.44;;;11.34;86.26
5883;BME280;2967;51.488;6.618;2023-04-02T15:40:53;102168.38;;;10.98;84.97
5883;BME280;2967;51.488;6.618;2023-04-02T15:46:08;102197.84;;;10.90;86.43
5883;BME280;2967;51.488;6.618;2023-04-02T15:51:24;102200.75;;;11.04;84.98
5883;BME280;2967;51.488;6.618;2023-04-02T15:56:38;102211.28;;;10.86;86.16
5883;BME280;2967;51.488;6.618;2023-04-02T16:01:50;102217.41;;;10.66;89.18
5883;BME280;2967;51.488;6.618;2023-04-02T16:07:04;102226.19;;;10.68;88.80
5883;BME280;2967;51.488;6.618;2023-04-02T16:12:15;102230.25;;;10.75;87.85
5883;BME280;2967;51.488;6.618;2023-04-02T16:17:23;102236.38;;;10.57;86.52
5883;BME280;2967;51.488;6.618;2023-04-02T16:22:29;102249.34;;;10.42;88.54
5883;BME280;2967;51.488;6.618;2023-04-02T16:27:37;102241.25;;;10.25;86.69
5883;BME280;2967;51.488;6.618;2023-04-02T16:32:52;102246.59;;;10.24;90.09
5883;BME280;2967;51.488;6.618;2023-04-02T16:38:04;102257.53;;;10.15;90.70
5883;BME280;2967;51.488;6.618;2023-04-02T16:43:18;102258.22;;;10.20;89.13
5883;BME280;2967;51.488;6.618;2023-04-02T16:48:36;102159.47;;;9.55;87.99
5883;BME280;2967;51.488;6.618;2023-04-02T16:53:46;102286.16;;;10.04;89.26
5883;BME280;2967;51.488;6.618;2023-04-02T16:59:12;102297.97;;;9.94;94.75
5883;BME280;2967;51.488;6.618;2023-04-02T17:04:48;102313.09;;;9.90;90.00
5883;BME280;2967;51.488;6.618;2023-04-02T17:09:58;102315.22;;;10.05;91.20
5883;BME280;2967;51.488;6.618;2023-04-02T17:15:10;102319.94;;;9.96;90.42
5883;BME280;2967;51.488;6.618;2023-04-02T17:20:29;102338.56;;;9.93;91.05
5883;BME280;2967;51.488;6.618;2023-04-02T17:25:36;102346.81;;;9.84;90.49
5883;BME280;2967;51.488;6.618;2023-04-02T17:30:43;102355.75;;;9.57;90.37
5883;BME280;2967;51.488;6.618;2023-04-02T17:35:58;102352.84;;;9.64;90.89
5883;BME280;2967;51.488;6.618;2023-04-02T17:41:09;102357.81;;;9.49;92.90
5883;BME280;2967;51.488;6.618;2023-04-02T17:46:22;102363.03;;;9.50;94.87
5883;BME280;2967;51.488;6.618;2023-04-02T17:51:38;102368.72;;;9.64;100.00
5883;BME280;2967;51.488;6.618;2023-04-02T17:57:02;102383.75;;;9.38;90.53
5883;BME280;2967;51.488;6.618;2023-04-02T18:02:24;102392.63;;;9.35;91.79
5883;BME280;2967;51.488;6.618;2023-04-02T18:07:37;102388.88;;;9.16;94.17
5883;BME280;2967;51.488;6.618;2023-04-02T18:12:53;102395.25;;;9.11;92.42
5883;BME280;2967;51.488;6.618;2023-04-02T18:18:03;102404.25;;;9.04;93.30
5883;BME280;2967;51.488;6.618;2023-04-02T18:23:19;102400.88;;;8.73;91.20
5883;BME280;2967;51.488;6.618;2023-04-02T18:28:35;102425.66;;;8.95;95.34
5883;BME280;2967;51.488;6.618;2023-04-02T18:39:20;102400.53;;;8.56;94.56
5883;BME280;2967;51.488;6.618;2023-04-02T18:44:40;102434.22;;;8.75;95.00
5883;BME280;2967;51.488;6.618;2023-04-02T18:49:57;102442.16;;;8.46;94.79
5883;BME280;2967;51.488;6.618;2023-04-02T18:55:14;102448.78;;;8.30;95.49
5883;BME280;2967;51.488;6.618;2023-04-02T19:00:24;102462.22;;;8.52;95.42
5883;BME280;2967;51.488;6.618;2023-04-02T19:05:37;102466.69;;;7.87;93.99
5883;BME280;2967;51.488;6.618;2023-04-02T19:10:43;102473.34;;;8.00;98.16
5883;BME280;2967;51.488;6.618;2023-04-02T19:21:33;102478.09;;;8.20;98.53
5883;BME280;2967;51.488;6.618;2023-04-02T19:26:45;102489.38;;;7.93;100.00
5883;BME280;2967;51.488;6.618;2023-04-02T19:31:53;102462.88;;;7.67;99.40
5883;BME280;2967;51.488;6.618;2023-04-02T19:37:03;102508.59;;;7.96;98.99
5883;BME280;2967;51.488;6.618;2023-04-02T19:42:18;102496.34;;;7.95;99.43
5883;BME280;2967;51.488;6.618;2023-04-02T19:47:22;102498.41;;;7.84;97.76
5883;BME280;2967;51.488;6.618;2023-04-02T19:52:25;102510.78;;;7.46;97.18
5883;BME280;2967;51.488;6.618;2023-04-02T19:57:29;102521.22;;;7.16;100.00
5883;BME280;2967;51.488;6.618;2023-04-02T20:02:32;102524.97;;;7.04;100.00
5883;BME280;2967;51.488;6.618;2023-04-02T20:07:34;102511.69;;;6.71;100.00
5883;BME280;2967;51.488;6.618;2023-04-02T20:12:38;102536.19;;;7.49;100.00
5883;BME280;2967;51.488;6.618;2023-04-02T20:17:41;102537.59;;;7.28;100.00
5883;BME280;2967;51.488;6.618;2023-04-02T20:22:45;102530.72;;;7.56;100.00
5883;BME280;2967;51.488;6.618;2023-04-02T20:27:52;102545.69;;;7.54;100.00
5883;BME280;2967;51.488;6.618;2023-04-02T20:32:57;102563.06;;;6.88;100.00
5883;BME280;2967;51.488;6.618;2023-04-02T20:38:02;102558.16;;;7.11;100.00
5883;BME280;2967;51.488;6.618;2023-04-02T20:43:10;102569.16;;;7.28;100.00
5883;BME280;2967;51.488;6.618;2023-04-02T20:48:13;102576.06;;;7.34;100.00
5883;BME280;2967;51.488;6.618;2023-04-02T20:53:17;102575.16;;;7.35;100.00
5883;BME280;2967;51.488;6.618;2023-04-02T20:58:21;102575.34;;;7.26;100.00
5883;BME280;2967;51.488;6.618;2023-04-02T21:03:24;102587.47;;;6.95;100.00
5883;BME280;2967;51.488;6.618;2023-04-02T21:08:26;102600.81;;;6.84;100.00
5883;BME280;2967;51.488;6.618;2023-04-02T21:13:31;102601.56;;;6.91;100.00
5883;BME280;2967;51.488;6.618;2023-04-02T21:18:36;102603.31;;;6.92;100.00
5883;BME280;2967;51.488;6.618;2023-04-02T21:23:39;102607.13;;;6.77;100.00
5883;BME280;2967;51.488;6.618;2023-04-02T21:28:44;102614.53;;;7.00;100.00
5883;BME280;2967;51.488;6.618;2023-04-02T21:33:49;102599.25;;;6.76;100.00
5883;BME280;2967;51.488;6.618;2023-04-02T21:38:53;102570.66;;;6.15;100.00
5883;BME280;2967;51.488;6.618;2023-04-02T21:43:59;102549.91;;;6.47;100.00
5883;BME280;2967;51.488;6.618;2023-04-02T21:49:04;102611.97;;;6.54;100.00
5883;BME280;2967;51.488;6.618;2023-04-02T21:54:08;102605.59;;;6.66;100.00
5883;BME280;2967;51.488;6.618;2023-04-02T21:59:14;102615.31;;;6.62;100.00
5883;BME280;2967;51.488;6.618;2023-04-02T22:04:19;102616.47;;;5.46;100.00
5883;BME280;2967;51.488;6.618;2023-04-02T22:09:23;102629.13;;;5.17;100.00
5883;BME280;2967;51.488;6.618;2023-04-02T22:14:28;102631.59;;;5.85;100.00
5883;BME280;2967;51.488;6.618;2023-04-02T22:19:31;102631.22;;;6.09;100.00
5883;BME280;2967;51.488;6.618;2023-04-02T22:24:33;102633.78;;;6.12;100.00
5883;BME280;2967;51.488;6.618;2023-04-02T22:29:37;102640.66;;;6.19;100.00
5883;BME280;2967;51.488;6.618;2023-04-02T22:34:40;102643.69;;;5.95;100.00
5883;BME280;2967;51.488;6.618;2023-04-02T22:39:46;102620.50;;;5.67;100.00
5883;BME280;2967;51.488;6.618;2023-04-02T22:44:49;102650.72;;;5.34;100.00
5883;BME280;2967;51.488;6.618;2023-04-02T22:49:52;102653.75;;;5.07;100.00
5883;BME280;2967;51.488;6.618;2023-04-02T22:54:55;102663.13;;;5.85;100.00
5883;BME280;2967;51.488;6.618;2023-04-02T22:59:59;102660.53;;;5.84;100.00
5883;BME280;2967;51.488;6.618;2023-04-02T23:05:02;102649.81;;;5.38;100.00
5883;BME280;2967;51.488;6.618;2023-04-02T23:10:05;102661.59;;;5.69;100.00
5883;BME280;2967;51.488;6.618;2023-04-02T23:15:10;102574.63;;;5.36;100.00
5883;BME280;2967;51.488;6.618;2023-04-02T23:20:12;102667.59;;;5.80;100.00
5883;BME280;2967;51.488;6.618;2023-04-02T23:25:15;102667.94;;;5.56;100.00
5883;BME280;2967;51.488;6.618;2023-04-02T23:30:19;102670.31;;;5.70;100.00
5883;BME280;2967;51.488;6.618;2023-04-02T23:35:22;102657.31;;;5.62;100.00
5883;BME280;2967;51.488;6.618;2023-04-02T23:40:25;102671.09;;;5.79;100.00
5883;BME280;2967;51.488;6.618;2023-04-02T23:45:29;102561.03;;;5.08;100.00
5883;BME280;2967;51.488;6.618;2023-04-02T23:50:32;102672.94;;;5.73;100.00
5883;BME280;2967;51.488;6.618;2023-04-02T23:55:35;102674.03;;;5.55;100.00
